createdAt,value
2023-04-16T00:02:28.749Z,9.60
2023-04-16T00:05:31.740Z,9.11
2023-04-16T00:08:35.765Z,9.56
2023-04-16T00:11:38.469Z,9.55
2023-04-16T00:14:40.894Z,9.37
2023-04-16T00:17:43.536Z,9.50
2023-04-16T00:20:47.534Z,9.50
2023-04-16T00:23:50.572Z,9.51
2023-04-16T00:26:52.915Z,9.46
2023-04-16T00:29:55.627Z,9.44
2023-04-16T00:32:58.889Z,9.42
2023-04-16T00:36:01.735Z,9.40
2023-04-16T00:39:04.313Z,9.39
2023-04-16T00:42:07.032Z,9.24
2023-04-16T00:45:10.349Z,9.33
2023-04-16T00:48:13.001Z,9.26
2023-04-16T00:51:15.684Z,9.29
2023-04-16T00:54:19.523Z,9.25
2023-04-16T00:57:23.965Z,9.20
2023-04-16T01:00:27.034Z,9.19
2023-04-16T01:03:39.392Z,9.19
2023-04-16T01:06:42.182Z,9.22
2023-04-16T01:09:44.499Z,9.12
2023-04-16T01:12:48.129Z,9.16
2023-04-16T01:15:50.654Z,9.16
2023-04-16T01:18:53.330Z,9.08
2023-04-16T01:21:55.740Z,9.07
2023-04-16T01:24:58.368Z,9.07
2023-04-16T01:28:00.677Z,9.08
2023-04-16T01:31:03.349Z,9.07
2023-04-16T01:34:07.682Z,9.03
2023-04-16T01:37:12.939Z,9.07
2023-04-16T01:40:15.530Z,9.07
2023-04-16T01:43:18.154Z,9.03
2023-04-16T01:46:33.382Z,9.01
2023-04-16T01:49:37.057Z,8.98
2023-04-16T01:52:39.491Z,9.02
2023-04-16T01:55:42.073Z,9.04
2023-04-16T01:58:46.098Z,8.96
2023-04-16T02:01:48.918Z,9.05
2023-04-16T02:04:52.019Z,9.01
2023-04-16T02:07:54.503Z,8.98
2023-04-16T02:11:00.419Z,8.89
2023-04-16T02:14:02.785Z,8.93
2023-04-16T02:17:05.438Z,8.92
2023-04-16T02:20:10.265Z,8.89
2023-04-16T02:23:17.093Z,8.86
2023-04-16T02:26:19.788Z,8.88
2023-04-16T02:29:23.090Z,8.89
2023-04-16T02:32:26.686Z,8.87
2023-04-16T02:35:29.465Z,8.84
2023-04-16T02:38:31.923Z,8.83
2023-04-16T02:41:34.647Z,8.67
2023-04-16T02:44:37.021Z,8.82
2023-04-16T02:47:40.026Z,8.83
2023-04-16T02:50:42.357Z,8.79
2023-04-16T02:53:46.146Z,8.80
2023-04-16T02:56:48.742Z,8.75
2023-04-16T02:59:51.401Z,8.80
2023-04-16T03:02:53.844Z,8.65
2023-04-16T03:05:56.650Z,8.59
2023-04-16T03:08:59.042Z,8.71
2023-04-16T03:12:02.517Z,8.67
2023-04-16T03:15:05.402Z,8.66
2023-04-16T03:18:08.044Z,8.67
2023-04-16T03:21:10.489Z,8.64
2023-04-16T03:24:13.621Z,8.63
2023-04-16T03:27:16.310Z,8.63
2023-04-16T03:30:20.134Z,8.63
2023-04-16T03:33:22.850Z,8.62
2023-04-16T03:36:27.197Z,8.63
2023-04-16T03:39:31.674Z,8.67
2023-04-16T03:42:34.393Z,8.67
2023-04-16T03:45:44.265Z,8.65
2023-04-16T03:48:47.666Z,8.51
2023-04-16T03:51:51.259Z,8.60
2023-04-16T03:54:56.056Z,8.53
2023-04-16T03:58:02.975Z,8.50
2023-04-16T04:01:06.425Z,8.50
2023-04-16T04:04:09.786Z,8.51
2023-04-16T04:07:12.654Z,8.53
2023-04-16T04:10:16.274Z,8.52
2023-04-16T04:13:19.248Z,8.48
2023-04-16T04:16:21.982Z,8.43
2023-04-16T04:19:24.377Z,8.39
2023-04-16T04:22:26.997Z,8.38
2023-04-16T04:25:29.513Z,8.35
2023-04-16T04:28:35.560Z,8.38
2023-04-16T04:31:38.271Z,8.37
2023-04-16T04:34:41.117Z,8.35
2023-04-16T04:37:43.887Z,8.39
2023-04-16T04:40:47.058Z,8.38
2023-04-16T04:43:50.409Z,8.38
2023-04-16T04:46:54.733Z,8.44
2023-04-16T04:49:57.210Z,8.48
2023-04-16T04:53:00.536Z,8.46
2023-04-16T04:56:12.254Z,8.52
2023-04-16T04:59:15.788Z,8.54
2023-04-16T05:02:18.253Z,8.58
2023-04-16T05:05:21.162Z,8.43
2023-04-16T05:08:23.450Z,8.70
2023-04-16T05:11:26.144Z,8.74
2023-04-16T05:14:28.517Z,8.72
2023-04-16T05:17:31.484Z,8.76
2023-04-16T05:20:33.845Z,8.73
2023-04-16T05:23:36.898Z,8.70
2023-04-16T05:26:39.196Z,8.61
2023-04-16T05:29:41.796Z,8.58
2023-04-16T05:32:44.261Z,8.57
2023-04-16T05:35:46.998Z,8.59
2023-04-16T05:38:49.314Z,8.65
2023-04-16T05:41:53.944Z,8.47
2023-04-16T05:44:56.351Z,8.78
2023-04-16T05:47:59.534Z,8.80
2023-04-16T05:51:02.764Z,8.83
2023-04-16T05:54:05.416Z,8.84
2023-04-16T05:57:07.726Z,8.84
2023-04-16T06:00:10.598Z,8.87
2023-04-16T06:03:14.616Z,8.73
2023-04-16T06:06:17.394Z,8.91
2023-04-16T06:09:19.726Z,8.55
2023-04-16T06:12:22.457Z,8.88
2023-04-16T06:15:24.749Z,8.95
2023-04-16T06:18:27.413Z,8.96
2023-04-16T06:21:29.923Z,8.93
2023-04-16T06:24:32.521Z,8.85
2023-04-16T06:27:34.858Z,9.05
2023-04-16T06:30:37.478Z,9.05
2023-04-16T06:33:39.851Z,9.14
2023-04-16T06:36:42.459Z,9.34
2023-04-16T06:39:44.834Z,9.31
2023-04-16T06:42:47.493Z,9.64
2023-04-16T06:45:50.104Z,9.81
2023-04-16T06:48:52.750Z,9.98
2023-04-16T06:51:55.159Z,10.21
2023-04-16T06:54:58.054Z,10.36
2023-04-16T06:58:00.404Z,10.55
2023-04-16T07:01:03.175Z,10.54
2023-04-16T07:04:05.744Z,10.73
2023-04-16T07:07:08.986Z,10.99
2023-04-16T07:10:11.300Z,10.93
2023-04-16T07:13:14.972Z,11.15
2023-04-16T07:16:18.157Z,11.09
2023-04-16T07:19:21.112Z,11.18
2023-04-16T07:22:23.435Z,11.39
2023-04-16T07:25:26.957Z,11.72
2023-04-16T07:28:29.270Z,11.74
2023-04-16T07:31:31.955Z,12.00
2023-04-16T07:34:34.262Z,12.28
2023-04-16T07:37:37.047Z,12.29
2023-04-16T07:40:39.478Z,12.23
2023-04-16T07:43:42.033Z,12.13
2023-04-16T07:46:47.478Z,12.13
2023-04-16T07:49:51.076Z,12.13
2023-04-16T07:52:53.749Z,12.41
2023-04-16T07:55:56.483Z,12.44
2023-04-16T07:59:07.944Z,12.60
2023-04-16T08:02:17.671Z,12.77
2023-04-16T08:05:20.451Z,12.76
2023-04-16T08:08:22.830Z,12.77
2023-04-16T08:11:25.771Z,12.89
2023-04-16T08:14:28.351Z,13.09
2023-04-16T08:17:31.038Z,13.18
2023-04-16T08:20:33.356Z,13.32
2023-04-16T08:23:36.007Z,13.62
2023-04-16T08:26:38.361Z,14.06
2023-04-16T08:29:40.920Z,14.23
2023-04-16T08:32:43.657Z,14.29
2023-04-16T08:35:46.376Z,14.46
2023-04-16T08:38:48.702Z,14.49
2023-04-16T08:41:53.956Z,14.58
2023-04-16T08:45:08.842Z,14.58
2023-04-16T08:48:12.239Z,14.64
2023-04-16T08:51:16.024Z,14.88
2023-04-16T08:54:26.828Z,15.00
2023-04-16T08:57:33.719Z,14.84
2023-04-16T09:00:37.952Z,15.03
2023-04-16T09:03:41.747Z,15.01
2023-04-16T09:06:45.430Z,15.24
2023-04-16T09:09:49.710Z,15.36
2023-04-16T09:12:52.340Z,15.52
2023-04-16T09:15:57.100Z,15.73
2023-04-16T09:19:00.297Z,15.57
2023-04-16T09:22:02.701Z,15.45
2023-04-16T09:25:05.846Z,15.31
2023-04-16T09:28:09.029Z,15.19
2023-04-16T09:31:18.009Z,14.95
2023-04-16T09:34:21.017Z,14.87
2023-04-16T09:37:24.726Z,14.73
2023-04-16T09:40:30.329Z,14.49
2023-04-16T09:43:33.066Z,14.49
2023-04-16T09:46:37.686Z,14.48
2023-04-16T09:49:44.089Z,14.29
2023-04-16T09:52:51.054Z,14.27
2023-04-16T09:56:01.243Z,14.27
2023-04-16T09:59:03.557Z,14.37
2023-04-16T10:02:14.813Z,14.42
2023-04-16T10:05:20.302Z,14.39
2023-04-16T10:08:24.066Z,14.55
2023-04-16T10:11:27.205Z,14.84
2023-04-16T10:14:29.692Z,15.23
2023-04-16T10:17:33.444Z,15.57
2023-04-16T10:20:37.096Z,15.97
2023-04-16T10:23:40.953Z,16.38
2023-04-16T10:26:44.420Z,17.00
2023-04-16T10:29:49.794Z,17.28
2023-04-16T10:32:52.696Z,17.73
2023-04-16T10:36:27.976Z,18.23
2023-04-16T10:39:31.232Z,18.71
2023-04-16T10:42:34.568Z,19.11
2023-04-16T10:45:40.190Z,19.29
2023-04-16T10:48:49.629Z,19.53
2023-04-16T10:51:54.097Z,19.61
2023-04-16T10:54:59.297Z,19.91
2023-04-16T10:58:01.536Z,20.08
2023-04-16T11:01:12.433Z,20.27
2023-04-16T11:04:38.828Z,20.30
2023-04-16T11:07:49.414Z,20.59
2023-04-16T11:10:52.412Z,20.68
2023-04-16T11:13:56.447Z,20.93
2023-04-16T11:16:58.954Z,21.26
2023-04-16T11:20:01.856Z,21.39
2023-04-16T11:23:10.969Z,21.59
2023-04-16T11:26:30.518Z,21.84
2023-04-16T11:29:32.913Z,21.80
2023-04-16T11:32:37.533Z,21.27
2023-04-16T11:35:41.462Z,20.87
2023-04-16T11:38:44.520Z,20.60
2023-04-16T11:41:52.368Z,20.36
2023-04-16T11:44:56.756Z,20.32
2023-04-16T11:47:59.113Z,20.12
2023-04-16T11:51:01.799Z,19.92
2023-04-16T11:54:04.344Z,19.72
2023-04-16T11:57:07.024Z,19.52
2023-04-16T12:00:15.810Z,19.40
2023-04-16T12:03:18.846Z,19.25
2023-04-16T12:06:22.713Z,19.02
2023-04-16T12:09:27.372Z,19.11
2023-04-16T12:12:32.409Z,19.00
2023-04-16T12:16:16.601Z,18.87
2023-04-16T12:19:19.164Z,18.95
2023-04-16T12:22:36.814Z,19.13
2023-04-16T12:25:43.065Z,19.13
2023-04-16T12:28:45.682Z,19.25
2023-04-16T12:31:52.433Z,19.30
2023-04-16T12:34:55.131Z,19.31
2023-04-16T12:37:57.686Z,19.29
2023-04-16T12:41:02.384Z,19.26
2023-04-16T12:44:11.928Z,19.12
2023-04-16T12:47:14.741Z,19.16
2023-04-16T12:50:17.320Z,18.85
2023-04-16T12:53:19.986Z,18.74
2023-04-16T12:56:22.441Z,18.71
2023-04-16T12:59:25.142Z,18.68
2023-04-16T13:02:27.877Z,18.89
2023-04-16T13:05:30.872Z,18.99
2023-04-16T13:08:33.499Z,19.17
2023-04-16T13:11:36.406Z,19.31
2023-04-16T13:14:39.560Z,19.22
2023-04-16T13:17:42.214Z,19.48
2023-04-16T13:20:44.648Z,19.27
2023-04-16T13:23:47.314Z,19.34
2023-04-16T13:26:50.686Z,19.30
2023-04-16T13:29:53.361Z,19.30
2023-04-16T13:32:56.724Z,19.16
2023-04-16T13:35:59.507Z,19.07
2023-04-16T13:39:04.635Z,18.95
2023-04-16T13:42:10.829Z,18.69
2023-04-16T13:45:13.225Z,18.65
2023-04-16T13:48:16.116Z,18.38
2023-04-16T13:51:18.419Z,18.39
2023-04-16T13:54:21.021Z,18.42
2023-04-16T13:57:23.426Z,18.41
2023-04-16T14:00:27.338Z,18.35
2023-04-16T14:03:30.095Z,18.21
2023-04-16T14:06:33.245Z,18.15
2023-04-16T14:09:35.960Z,18.08
2023-04-16T14:12:39.320Z,17.99
2023-04-16T14:15:42.059Z,18.11
2023-04-16T14:18:44.649Z,17.90
2023-04-16T14:21:47.280Z,17.94
2023-04-16T14:24:49.591Z,17.74
2023-04-16T14:27:54.242Z,17.70
2023-04-16T14:30:56.555Z,17.72
2023-04-16T14:33:59.707Z,17.57
2023-04-16T14:37:02.212Z,17.56
2023-04-16T14:40:08.640Z,17.53
2023-04-16T14:43:10.984Z,17.32
2023-04-16T14:46:17.427Z,17.24
2023-04-16T14:49:19.910Z,17.27
2023-04-16T14:52:22.620Z,17.16
2023-04-16T14:55:24.967Z,17.11
2023-04-16T14:58:27.662Z,17.21
2023-04-16T15:01:30.120Z,17.19
2023-04-16T15:04:32.950Z,17.11
2023-04-16T15:07:35.444Z,17.10
2023-04-16T15:10:38.124Z,17.06
2023-04-16T15:13:40.413Z,17.02
2023-04-16T15:16:43.122Z,17.01
2023-04-16T15:19:45.516Z,17.03
2023-04-16T15:22:48.160Z,17.04
2023-04-16T15:25:50.616Z,17.04
2023-04-16T15:28:53.439Z,16.90
2023-04-16T15:31:55.999Z,17.01
2023-04-16T15:35:00.126Z,16.97
2023-04-16T15:38:02.361Z,16.93
2023-04-16T15:41:04.976Z,17.11
2023-04-16T15:44:07.337Z,17.17
2023-04-16T15:47:09.972Z,17.15
2023-04-16T15:50:12.531Z,16.98
2023-04-16T15:53:15.286Z,17.08
2023-04-16T15:56:17.782Z,17.05
2023-04-16T15:59:20.618Z,16.96
2023-04-16T16:02:23.253Z,16.74
2023-04-16T16:05:26.294Z,16.78
2023-04-16T16:08:29.588Z,16.64
2023-04-16T16:11:32.670Z,16.69
2023-04-16T16:14:35.141Z,16.56
2023-04-16T16:17:38.061Z,16.53
2023-04-16T16:20:40.677Z,16.47
2023-04-16T16:23:43.328Z,16.40
2023-04-16T16:26:45.670Z,16.33
2023-04-16T16:29:48.389Z,16.28
2023-04-16T16:32:51.226Z,16.21
2023-04-16T16:35:53.886Z,16.22
2023-04-16T16:38:56.954Z,16.21
2023-04-16T16:41:59.596Z,16.16
2023-04-16T16:45:06.207Z,16.14
2023-04-16T16:48:09.162Z,16.13
2023-04-16T16:51:11.692Z,16.12
2023-04-16T16:54:14.744Z,16.11
2023-04-16T16:57:19.328Z,15.99
2023-04-16T17:00:22.261Z,16.09
2023-04-16T17:03:24.740Z,16.00
2023-04-16T17:06:27.778Z,16.09
2023-04-16T17:09:30.147Z,16.09
2023-04-16T17:12:32.890Z,16.06
2023-04-16T17:15:35.226Z,15.96
2023-04-16T17:18:37.821Z,15.90
2023-04-16T17:21:40.200Z,15.95
2023-04-16T17:24:42.991Z,15.70
2023-04-16T17:27:45.373Z,15.89
2023-04-16T17:30:51.703Z,15.88
2023-04-16T17:33:54.080Z,15.74
2023-04-16T17:36:56.701Z,15.75
2023-04-16T17:39:58.998Z,15.57
2023-04-16T17:43:01.630Z,15.64
2023-04-16T17:46:04.063Z,15.56
2023-04-16T17:49:06.730Z,15.49
2023-04-16T17:52:09.109Z,15.45
2023-04-16T17:55:11.938Z,15.40
2023-04-16T17:58:14.227Z,15.33
2023-04-16T18:01:16.882Z,15.30
2023-04-16T18:04:19.835Z,15.27
2023-04-16T18:07:22.292Z,15.20
2023-04-16T18:10:24.989Z,15.14
2023-04-16T18:13:27.340Z,15.14
2023-04-16T18:16:30.017Z,15.08
2023-04-16T18:19:32.380Z,14.87
2023-04-16T18:22:34.980Z,14.95
2023-04-16T18:25:37.507Z,14.94
2023-04-16T18:28:41.095Z,14.76
2023-04-16T18:31:44.104Z,14.88
2023-04-16T18:34:46.899Z,14.69
2023-04-16T18:37:49.303Z,14.84
2023-04-16T18:40:52.171Z,14.61
2023-04-16T18:43:54.558Z,14.80
2023-04-16T18:46:57.240Z,14.75
2023-04-16T18:49:59.566Z,14.69
2023-04-16T18:53:02.424Z,14.70
2023-04-16T18:56:05.300Z,14.65
2023-04-16T18:59:08.109Z,14.54
2023-04-16T19:02:10.727Z,14.46
2023-04-16T19:05:13.521Z,14.63
2023-04-16T19:08:16.548Z,14.58
2023-04-16T19:11:19.225Z,14.60
2023-04-16T19:14:21.696Z,14.61
2023-04-16T19:17:24.324Z,14.63
2023-04-16T19:20:27.079Z,14.53
2023-04-16T19:23:29.837Z,14.53
2023-04-16T19:26:32.152Z,14.41
2023-04-16T19:29:35.547Z,14.60
2023-04-16T19:32:37.926Z,14.53
2023-04-16T19:35:42.757Z,14.57
2023-04-16T19:38:45.225Z,14.41
2023-04-16T19:41:47.886Z,14.53
2023-04-16T19:44:50.468Z,14.32
2023-04-16T19:47:53.662Z,14.35
2023-04-16T19:50:56.058Z,14.44
2023-04-16T19:53:59.106Z,14.35
2023-04-16T19:57:01.589Z,14.38
2023-04-16T20:00:08.430Z,14.32
2023-04-16T20:03:10.878Z,14.23
2023-04-16T20:06:13.587Z,14.21
2023-04-16T20:09:18.610Z,14.12
2023-04-16T20:12:21.414Z,14.25
2023-04-16T20:15:23.765Z,14.22
2023-04-16T20:18:28.886Z,14.08
2023-04-16T20:21:34.281Z,14.09
2023-04-16T20:24:38.542Z,14.23
2023-04-16T20:27:41.106Z,14.08
2023-04-16T20:30:43.870Z,14.22
2023-04-16T20:33:46.395Z,14.22
2023-04-16T20:36:49.109Z,14.17
2023-04-16T20:39:54.279Z,14.23
2023-04-16T20:42:59.990Z,14.08
2023-04-16T20:46:02.994Z,14.20
2023-04-16T20:49:08.329Z,14.24
2023-04-16T20:52:11.117Z,14.07
2023-04-16T20:55:13.824Z,14.23
2023-04-16T20:58:16.227Z,14.10
2023-04-16T21:01:20.732Z,14.22
2023-04-16T21:04:23.349Z,14.20
2023-04-16T21:07:26.316Z,14.15
2023-04-16T21:10:28.649Z,14.07
2023-04-16T21:13:31.303Z,14.04
2023-04-16T21:16:33.654Z,14.15
2023-04-16T21:19:36.389Z,14.16
2023-04-16T21:22:38.848Z,14.13
2023-04-16T21:25:41.565Z,14.08
2023-04-16T21:28:44.064Z,14.10
2023-04-16T21:31:46.913Z,14.10
2023-04-16T21:34:49.292Z,14.08
2023-04-16T21:37:51.920Z,14.06
2023-04-16T21:40:55.614Z,14.00
2023-04-16T21:43:58.120Z,14.02
2023-04-16T21:47:00.585Z,14.03
2023-04-16T21:50:03.694Z,13.86
2023-04-16T21:53:06.758Z,13.96
2023-04-16T21:56:09.453Z,13.78
2023-04-16T21:59:11.949Z,13.88
2023-04-16T22:02:15.041Z,13.71
2023-04-16T22:05:18.016Z,13.67
2023-04-16T22:08:24.898Z,13.78
2023-04-16T22:11:27.878Z,13.62
2023-04-16T22:14:31.914Z,13.76
2023-04-16T22:17:34.816Z,13.59
2023-04-16T22:20:39.153Z,13.57
2023-04-16T22:23:42.128Z,13.68
2023-04-16T22:26:44.504Z,13.69
2023-04-16T22:29:47.170Z,13.55
2023-04-16T22:32:49.513Z,13.64
2023-04-16T22:35:52.139Z,13.53
2023-04-16T22:38:54.514Z,13.51
2023-04-16T22:41:57.160Z,13.49
2023-04-16T22:44:59.440Z,13.65
2023-04-16T22:48:02.639Z,13.62
2023-04-16T22:51:07.106Z,13.48
2023-04-16T22:54:13.673Z,13.57
2023-04-16T22:57:17.516Z,13.49
2023-04-16T23:00:21.069Z,13.46
2023-04-16T23:03:23.634Z,13.59
2023-04-16T23:06:27.192Z,13.58
2023-04-16T23:09:29.543Z,13.59
2023-04-16T23:12:32.174Z,13.53
2023-04-16T23:15:34.489Z,13.39
2023-04-16T23:18:37.911Z,13.43
2023-04-16T23:21:40.820Z,13.53
2023-04-16T23:24:43.404Z,13.43
2023-04-16T23:27:45.707Z,13.43
2023-04-16T23:30:51.674Z,13.55
2023-04-16T23:33:54.337Z,13.51
2023-04-16T23:36:56.995Z,13.52
2023-04-16T23:39:59.279Z,13.52
2023-04-16T23:43:01.839Z,13.52
2023-04-16T23:46:04.271Z,13.46
2023-04-16T23:49:07.008Z,13.51
2023-04-16T23:52:09.404Z,13.37
2023-04-16T23:55:12.095Z,13.51
2023-04-16T23:58:14.594Z,13.35
